Time;durP1;ratioP1;P1;durP2;ratioP2;P2;SDS_P1;SDS_P2;PMS_P1;PMS_P2;Temp;Humidity;BMP_temperature;BMP_pressure;BME280_temperature;BME280_humidity;BME280_pressure;Samples;Min_cycle;Max_cycle;Signal;HPM_P1;HPM_P2
2021/08/07 00:01:08;;;;;;;2.33;2.13;;;;;;;24.42;48.20;99279.81;4975507;28;20110;-88
2021/08/07 00:03:35;;;;;;;5.10;2.63;;;;;;;24.47;48.14;99266.75;4974630;28;20545;-88
2021/08/07 00:06:22;;;;;;;2.78;2.20;;;;;;;24.48;48.08;99271.06;4960535;28;20121;-89
2021/08/07 00:08:49;;;;;;;5.45;2.47;;;;;;;24.59;46.93;99268.91;4974787;28;20038;-89
2021/08/07 00:11:15;;;;;;;2.03;1.75;;;;;;;24.31;47.38;99273.13;4975069;28;20549;-89
2021/08/07 00:13:44;;;;;;;2.63;2.25;;;;;;;24.24;47.20;99274.88;4974155;28;20070;-89
2021/08/07 00:16:11;;;;;;;3.47;2.40;;;;;;;24.21;47.31;99261.13;4957240;28;20054;-87
2021/08/07 00:18:39;;;;;;;13.18;2.40;;;;;;;24.16;47.58;99266.19;4974684;28;20051;-89
2021/08/07 00:21:06;;;;;;;3.70;2.75;;;;;;;24.11;47.56;99264.06;4974799;28;20117;-89
2021/08/07 00:23:33;;;;;;;2.88;1.77;;;;;;;24.08;48.00;99261.81;4974380;28;20074;-89
2021/08/07 00:26:00;;;;;;;4.57;2.22;;;;;;;24.00;48.17;99264.56;4974746;28;20047;-90
2021/08/07 00:28:26;;;;;;;3.53;2.63;;;;;;;23.92;48.17;99254.88;4974903;28;20121;-89
2021/08/07 00:30:53;;;;;;;3.13;2.45;;;;;;;23.97;48.33;99256.94;4956984;28;20043;-89
2021/08/07 00:33:20;;;;;;;2.60;1.90;;;;;;;23.94;48.60;99258.16;4957447;28;20070;-90
2021/08/07 00:35:46;;;;;;;5.30;2.15;;;;;;;23.92;48.94;99254.03;4974538;28;20043;-90
2021/08/07 00:38:14;;;;;;;2.22;1.90;;;;;;;23.88;48.43;99256.25;4974731;28;20130;-89
2021/08/07 00:40:42;;;;;;;2.75;2.13;;;;;;;23.73;49.33;99253.59;4956757;28;20142;-89
2021/08/07 00:43:11;;;;;;;2.03;1.83;;;;;;;23.82;49.00;99262.31;4941543;28;20113;-89
2021/08/07 00:45:39;;;;;;;3.15;2.25;;;;;;;23.85;49.22;99258.44;4956595;28;20645;-89
2021/08/07 00:48:09;;;;;;;6.03;2.38;;;;;;;23.64;48.91;99256.53;4956758;28;20383;-89
2021/08/07 00:50:48;;;;;;;2.75;2.38;;;;;;;23.70;49.04;99258.44;4956529;28;20417;-90
2021/08/07 00:53:21;;;;;;;3.35;2.30;;;;;;;23.76;49.30;99265.72;4957162;28;20047;-88
2021/08/07 00:55:50;;;;;;;4.95;2.30;;;;;;;23.81;48.65;99266.00;4956962;28;20097;-91
2021/08/07 00:58:18;;;;;;;3.38;2.40;;;;;;;23.75;48.94;99272.03;4956403;28;20085;-91
2021/08/07 01:00:49;;;;;;;4.00;2.38;;;;;;;23.79;48.51;99278.63;4956970;28;20078;-91
2021/08/07 01:03:25;;;;;;;3.92;2.55;;;;;;;23.96;49.00;99280.06;4956293;28;20038;-90
2021/08/07 01:06:30;;;;;;;3.28;2.20;;;;;;;24.05;47.68;99284.28;4957086;28;20075;-91
2021/08/07 01:09:02;;;;;;;3.08;2.05;;;;;;;23.95;47.62;99286.41;4973685;28;20035;-91
2021/08/07 01:11:48;;;;;;;4.20;2.22;;;;;;;23.94;47.84;99281.28;4956593;28;20413;-88
2021/08/07 01:14:20;;;;;;;4.32;2.00;;;;;;;23.89;48.03;99284.50;4973430;28;20043;-91
2021/08/07 01:16:49;;;;;;;6.43;2.63;;;;;;;23.86;48.36;99279.53;4937396;29;20049;-89
2021/08/07 01:19:17;;;;;;;3.55;1.75;;;;;;;23.95;48.40;99282.94;4943045;28;20043;-89
2021/08/07 01:21:59;;;;;;;5.25;3.20;;;;;;;23.81;48.24;99289.09;4956490;28;20501;-90
2021/08/07 01:24:46;;;;;;;3.35;2.38;;;;;;;23.96;48.59;99293.38;4956098;28;20469;-91
2021/08/07 01:27:13;;;;;;;3.72;2.17;;;;;;;23.97;47.81;99295.06;4956114;28;20039;-90
2021/08/07 01:29:49;;;;;;;3.85;3.03;;;;;;;23.58;49.70;99297.97;4952789;28;20048;-91
2021/08/07 01:32:16;;;;;;;4.32;2.28;;;;;;;23.49;50.14;99294.59;4937167;29;20131;-90
2021/08/07 01:34:44;;;;;;;4.57;2.50;;;;;;;23.49;49.95;99299.09;4949404;29;20050;-91
2021/08/07 01:37:19;;;;;;;2.63;2.10;;;;;;;23.67;49.79;99306.72;4945170;29;20043;-91
2021/08/07 01:39:57;;;;;;;8.07;2.72;;;;;;;23.50;50.14;99296.25;4936737;28;20494;-90
2021/08/07 01:42:34;;;;;;;2.78;2.58;;;;;;;23.47;50.56;99307.22;4952858;29;20498;-89
2021/08/07 01:45:07;;;;;;;5.63;2.53;;;;;;;23.19;51.04;99314.16;4938036;29;20051;-89
2021/08/07 01:47:56;;;;;;;2.90;2.40;;;;;;;23.37;51.03;99317.31;4940815;29;20043;-89
2021/08/07 01:50:31;;;;;;;3.70;2.72;;;;;;;23.19;51.06;99322.16;4940948;29;20454;-89
2021/08/07 01:53:01;;;;;;;4.93;2.75;;;;;;;22.81;52.50;99322.09;4939907;29;20078;-88
2021/08/07 01:55:45;;;;;;;2.92;2.03;;;;;;;22.81;52.52;99326.59;4958426;29;20075;-87
2021/08/07 01:58:39;;;;;;;;;;;;;;;22.77;52.57;99325.28;4941032;29;20043;-90
2021/08/07 02:01:10;;;;;;;5.47;3.20;;;;;;;22.74;52.82;99331.75;4941382;29;19923;-90
2021/08/07 02:03:43;;;;;;;5.15;2.35;;;;;;;22.38;54.43;99332.34;4940509;29;20106;-91
2021/08/07 02:06:13;;;;;;;3.28;2.95;;;;;;;22.32;54.64;99337.50;4940708;29;20134;-90
2021/08/07 02:08:41;;;;;;;5.03;2.97;;;;;;;22.31;54.47;99333.19;4940358;29;20070;-90
2021/08/07 02:11:16;;;;;;;4.43;2.38;;;;;;;22.29;54.79;99332.56;4940641;29;20051;-89
2021/08/07 02:13:47;;;;;;;6.78;2.40;;;;;;;22.20;55.09;99337.88;4940275;29;20095;-88
2021/08/07 02:16:21;;;;;;;3.33;2.70;;;;;;;21.98;55.64;99338.63;4940675;29;20486;-88
2021/08/07 02:18:51;;;;;;;5.15;2.35;;;;;;;21.84;56.11;99334.88;4940312;29;20043;-88
2021/08/07 02:21:21;;;;;;;7.10;3.42;;;;;;;21.86;55.88;99335.53;4940612;29;20086;-88
2021/08/07 02:23:49;;;;;;;3.08;2.20;;;;;;;21.92;55.16;99337.50;4957407;29;20166;-90
2021/08/07 02:26:23;;;;;;;3.25;2.35;;;;;;;21.93;55.66;99335.66;4940536;29;20047;-90
2021/08/07 02:29:00;;;;;;;2.47;2.28;;;;;;;21.75;56.05;99335.91;4940134;29;20058;-90
2021/08/07 02:31:28;;;;;;;7.20;3.13;;;;;;;21.88;55.94;99330.88;4940549;29;20058;-89
2021/08/07 02:33:56;;;;;;;5.68;2.72;;;;;;;21.85;56.03;99331.22;4940302;29;20051;-90
2021/08/07 02:36:25;;;;;;;2.58;2.38;;;;;;;21.76;56.12;99337.53;4940155;29;20059;-89
2021/08/07 02:39:00;;;;;;;11.20;2.83;;;;;;;21.78;56.48;99335.53;4940358;29;20043;-90
2021/08/07 02:41:28;;;;;;;3.63;2.45;;;;;;;21.74;56.48;99336.91;4940029;29;20173;-89
2021/08/07 02:43:56;;;;;;;5.22;2.42;;;;;;;21.69;56.94;99337.41;4940219;29;20051;-89
2021/08/07 02:46:24;;;;;;;5.22;3.25;;;;;;;21.55;57.67;99334.63;4939811;29;20054;-90
2021/08/07 02:48:55;;;;;;;4.40;2.55;;;;;;;21.27;58.42;99334.97;4940119;29;20121;-89
2021/08/07 02:51:23;;;;;;;4.72;2.35;;;;;;;21.36;58.03;99347.25;4939591;29;20126;-88
2021/08/07 02:53:54;;;;;;;6.40;3.88;;;;;;;21.32;58.29;99348.56;4939841;29;20047;-88
2021/08/07 02:56:21;;;;;;;3.15;2.40;;;;;;;21.36;58.46;99352.56;4939459;29;20110;-91
2021/08/07 02:58:49;;;;;;;4.35;3.00;;;;;;;21.25;58.74;99350.19;4939855;29;20426;-88
2021/08/07 03:01:18;;;;;;;7.82;3.15;;;;;;;21.15;59.15;99346.91;4939699;29;20047;-88
2021/08/07 03:03:51;;;;;;;3.33;2.53;;;;;;;21.01;59.52;99342.25;4939494;29;20047;-89
2021/08/07 03:06:18;;;;;;;4.72;3.58;;;;;;;21.26;59.23;99356.34;4939712;29;20046;-88
2021/08/07 03:08:45;;;;;;;5.75;3.00;;;;;;;21.28;59.34;99355.16;4956442;29;20435;-87
2021/08/07 03:11:13;;;;;;;7.45;2.78;;;;;;;21.16;59.67;99352.03;4939834;29;20047;-85
2021/08/07 03:13:42;;;;;;;6.40;2.80;;;;;;;21.20;59.46;99357.84;4938896;29;20044;-85
2021/08/07 03:16:10;;;;;;;7.65;3.05;;;;;;;21.20;59.71;99357.84;4939461;29;20066;-85
2021/08/07 03:18:41;;;;;;;7.93;3.33;;;;;;;21.11;60.22;99372.06;4939261;29;20398;-86
2021/08/07 03:21:09;;;;;;;6.00;2.92;;;;;;;21.10;61.06;99362.47;4939292;29;20051;-86
2021/08/07 03:23:47;;;;;;;7.70;4.15;;;;;;;21.15;61.89;99365.47;4939140;29;20043;-86
2021/08/07 03:26:15;;;;;;;7.45;3.47;;;;;;;20.98;63.27;99366.44;4939288;29;20043;-86
2021/08/07 03:28:42;;;;;;;4.63;3.47;;;;;;;20.96;63.70;99369.25;4939311;29;20514;-85
2021/08/07 03:31:12;;;;;;;8.48;4.00;;;;;;;20.88;64.13;99363.97;4939543;29;20058;-89
2021/08/07 03:33:39;;;;;;;22.75;5.65;;;;;;;20.96;64.29;99376.38;4939331;29;20043;-88
2021/08/07 03:36:10;;;;;;;7.00;3.42;;;;;;;20.89;64.48;99371.72;4939019;29;20047;-88
2021/08/07 03:38:38;;;;;;;6.53;3.85;;;;;;;20.80;65.00;99375.34;4939083;29;20122;-87
2021/08/07 03:41:05;;;;;;;5.07;3.72;;;;;;;20.81;65.20;99379.66;4938755;29;20051;-88
2021/08/07 03:43:32;;;;;;;8.30;3.85;;;;;;;20.82;65.84;99375.19;4939321;29;20051;-88
2021/08/07 03:46:00;;;;;;;12.18;3.35;;;;;;;20.85;65.79;99374.88;4938717;29;20047;-88
2021/08/07 03:48:30;;;;;;;12.35;4.43;;;;;;;20.83;66.20;99377.69;4939065;29;20498;-87
2021/08/07 03:50:57;;;;;;;9.48;3.72;;;;;;;20.73;66.87;99373.53;4938541;29;20098;-88
2021/08/07 03:53:36;;;;;;;6.07;4.00;;;;;;;20.57;67.65;99369.84;4939175;29;20142;-88
2021/08/07 03:56:03;;;;;;;9.35;4.57;;;;;;;20.66;67.88;99375.97;4938889;29;20078;-87
2021/08/07 03:58:31;;;;;;;7.05;4.00;;;;;;;20.59;68.00;99380.28;4938676;29;20046;-88
2021/08/07 04:01:04;;;;;;;5.75;4.00;;;;;;;20.64;68.57;99384.09;4939011;29;20058;-88
2021/08/07 04:03:33;;;;;;;8.35;3.90;;;;;;;20.73;68.27;99381.47;4938508;29;20044;-88
2021/08/07 04:06:18;;;;;;;8.52;3.72;;;;;;;20.72;68.65;99391.25;4938661;28;20054;-88
2021/08/07 04:08:46;;;;;;;9.02;3.90;;;;;;;20.71;68.60;99389.56;4937831;29;20058;-88
2021/08/07 04:11:13;;;;;;;9.25;5.20;;;;;;;20.83;68.55;99393.59;4938625;29;20491;-88
2021/08/07 04:13:47;;;;;;;8.93;5.00;;;;;;;20.81;68.72;99390.25;4937713;29;20047;-85
2021/08/07 04:16:14;;;;;;;8.93;4.93;;;;;;;20.81;68.85;99395.53;4938635;29;20091;-86
2021/08/07 04:18:41;;;;;;;7.75;4.28;;;;;;;20.86;68.69;99392.41;4937805;29;20122;-88
2021/08/07 04:21:08;;;;;;;6.97;3.90;;;;;;;20.95;68.66;99402.03;4955423;29;20114;-88
2021/08/07 04:23:35;;;;;;;10.50;4.68;;;;;;;21.08;68.12;99402.38;4938094;29;20054;-85
2021/08/07 04:26:02;;;;;;;6.75;3.47;;;;;;;21.09;67.66;99393.44;4950538;28;20460;-86
2021/08/07 04:28:30;;;;;;;11.20;4.05;;;;;;;21.22;67.12;99392.13;4953129;28;20074;-86
2021/08/07 04:30:57;;;;;;;6.10;3.75;;;;;;;21.22;67.13;99400.06;4954986;28;20047;-86
2021/08/07 04:33:25;;;;;;;6.07;3.50;;;;;;;21.27;67.23;99403.88;4956345;28;20557;-85
2021/08/07 04:35:52;;;;;;;11.02;4.55;;;;;;;21.09;67.82;99403.19;4962308;28;20143;-85
2021/08/07 04:38:23;;;;;;;10.38;4.65;;;;;;;21.29;67.02;99401.06;4962944;28;20414;-86
2021/08/07 04:40:51;;;;;;;19.02;4.22;;;;;;;21.44;66.49;99397.59;4966655;28;20070;-86
2021/08/07 04:43:27;;;;;;;6.68;3.65;;;;;;;21.48;66.13;99400.75;4958194;28;20047;-85
2021/08/07 04:45:54;;;;;;;14.80;4.35;;;;;;;21.55;65.79;99407.03;4958400;28;20141;-85
2021/08/07 04:48:23;;;;;;;8.38;3.95;;;;;;;21.57;65.59;99417.47;4957623;28;20035;-86
2021/08/07 04:51:10;;;;;;;9.88;3.90;;;;;;;21.78;64.50;99414.28;4972807;28;20057;-86
2021/08/07 04:53:40;;;;;;;18.27;4.25;;;;;;;22.19;62.03;99412.41;4956746;28;20094;-87
2021/08/07 04:56:18;;;;;;;8.90;4.35;;;;;;;22.66;60.21;99415.00;4956390;28;20057;-85
2021/08/07 04:58:45;;;;;;;14.40;3.58;;;;;;;22.77;59.19;99410.31;4971839;28;20035;-82
2021/08/07 05:01:16;;;;;;;7.18;3.65;;;;;;;22.57;59.01;99412.56;4964212;28;20521;-83
2021/08/07 05:03:45;;;;;;;7.13;3.10;;;;;;;22.77;58.41;99416.44;4957718;28;20050;-84
2021/08/07 05:06:15;;;;;;;6.82;3.60;;;;;;;22.99;57.60;99413.00;4957149;28;20405;-84
2021/08/07 05:08:42;;;;;;;14.35;3.70;;;;;;;23.08;57.35;99412.97;4956365;28;20450;-84
2021/08/07 05:11:09;;;;;;;8.48;3.55;;;;;;;23.36;56.39;99414.06;4973883;28;20050;-83
2021/08/07 05:13:36;;;;;;;6.60;3.55;;;;;;;23.65;55.58;99401.84;4955130;28;20155;-83
2021/08/07 05:16:06;;;;;;;3.95;2.80;;;;;;;23.74;55.62;99395.44;4956141;28;20046;-83
2021/08/07 05:18:33;;;;;;;5.63;3.25;;;;;;;23.68;55.48;99396.16;4955621;28;20047;-84
2021/08/07 05:21:02;;;;;;;4.93;3.05;;;;;;;23.89;55.50;99398.13;4956436;28;20042;-84
2021/08/07 05:23:30;;;;;;;6.35;2.42;;;;;;;23.87;55.74;99397.50;4956029;28;20145;-85
2021/08/07 05:25:57;;;;;;;11.32;3.13;;;;;;;24.08;55.37;99394.91;4956226;28;20375;-86
2021/08/07 05:28:24;;;;;;;4.32;2.83;;;;;;;24.31;55.01;99392.97;4956496;28;20498;-87
2021/08/07 05:30:51;;;;;;;3.42;3.08;;;;;;;24.45;54.52;99396.66;4956402;28;20043;-83
2021/08/07 05:33:18;;;;;;;11.57;4.55;;;;;;;24.79;53.60;99395.19;4956542;28;20122;-84
2021/08/07 05:35:45;;;;;;;6.70;3.08;;;;;;;24.69;53.77;99398.16;4956069;28;20047;-84
2021/08/07 05:38:13;;;;;;;5.10;3.28;;;;;;;24.89;52.96;99394.88;4956365;28;20046;-84
2021/08/07 05:40:40;;;;;;;5.32;3.20;;;;;;;25.06;53.08;99404.28;4955778;28;20067;-86
2021/08/07 05:43:07;;;;;;;8.27;3.90;;;;;;;24.99;53.29;99398.06;4957181;28;20046;-85
2021/08/07 05:45:34;;;;;;;6.80;3.92;;;;;;;25.17;52.74;99398.44;4973472;28;20047;-84
2021/08/07 05:48:01;;;;;;;8.57;3.97;;;;;;;25.14;52.62;99390.00;4956234;28;20138;-85
2021/08/07 05:50:34;;;;;;;4.85;3.13;;;;;;;25.26;52.22;99394.63;4955786;28;20528;-83
2021/08/07 05:53:02;;;;;;;5.32;3.50;;;;;;;25.31;52.44;99400.22;4956011;28;20477;-83
2021/08/07 05:55:30;;;;;;;7.65;3.97;;;;;;;25.43;51.80;99395.19;4956135;28;20078;-83
2021/08/07 05:57:58;;;;;;;12.45;4.47;;;;;;;25.30;52.19;99395.06;4970037;28;20039;-84
2021/08/07 06:00:26;;;;;;;8.88;4.30;;;;;;;25.39;52.33;99398.44;4952854;28;20263;-82
2021/08/07 06:02:54;;;;;;;8.05;4.55;;;;;;;25.28;52.48;99405.94;4949185;28;20475;-82
2021/08/07 06:05:36;;;;;;;16.20;5.05;;;;;;;25.61;52.13;99402.69;4947080;28;20365;-84
2021/08/07 06:08:06;;;;;;;6.20;3.28;;;;;;;25.48;52.75;99403.44;4952637;28;20525;-81
2021/08/07 06:10:35;;;;;;;8.40;3.88;;;;;;;25.72;51.70;99409.34;4957107;28;20500;-83
2021/08/07 06:13:01;;;;;;;5.53;3.20;;;;;;;25.58;52.17;99408.44;4946423;28;20047;-83
2021/08/07 06:15:29;;;;;;;6.95;2.83;;;;;;;25.59;51.60;99412.75;4950150;28;20042;-86
2021/08/07 06:17:57;;;;;;;7.97;3.78;;;;;;;25.61;52.04;99411.53;4953616;28;20046;-84
2021/08/07 06:20:26;;;;;;;7.90;3.60;;;;;;;25.83;51.62;99414.16;4950769;28;20106;-88
2021/08/07 06:22:53;;;;;;;7.65;3.50;;;;;;;25.83;50.61;99411.50;4957948;28;20095;-86
2021/08/07 06:25:21;;;;;;;5.57;3.00;;;;;;;25.71;50.50;99415.72;4953410;28;20458;-82
2021/08/07 06:27:55;;;;;;;9.10;3.58;;;;;;;25.82;50.80;99417.88;4948461;28;20078;-83
2021/08/07 06:30:25;;;;;;;6.47;2.65;;;;;;;25.95;50.44;99414.47;4946993;28;20175;-83
2021/08/07 06:32:53;;;;;;;7.88;3.03;;;;;;;25.54;51.29;99413.34;4967202;28;20061;-80
2021/08/07 06:35:20;;;;;;;5.63;3.38;;;;;;;25.99;50.25;99403.19;4971354;28;20110;-90
2021/08/07 06:37:48;;;;;;;10.88;3.88;;;;;;;25.88;50.89;99417.09;4953053;28;20468;-82
2021/08/07 06:40:16;;;;;;;10.45;3.83;;;;;;;25.99;50.24;99407.69;4954906;28;20035;-85
2021/08/07 06:42:44;;;;;;;6.85;3.97;;;;;;;26.15;49.92;99410.06;4971862;28;20038;-85
2021/08/07 06:45:29;;;;;;;7.95;3.22;;;;;;;26.10;50.24;99402.66;4952949;28;20138;-85
2021/08/07 06:47:57;;;;;;;6.55;3.28;;;;;;;25.82;50.32;99407.19;4966956;28;20051;-83
2021/08/07 06:50:24;;;;;;;4.72;3.45;;;;;;;25.97;49.64;99404.41;4963437;28;20051;-80
2021/08/07 06:52:51;;;;;;;9.98;4.65;;;;;;;25.88;50.14;99410.91;4955074;28;20070;-82
2021/08/07 06:55:18;;;;;;;8.23;3.17;;;;;;;26.18;50.01;99416.84;4966933;28;20470;-82
2021/08/07 06:57:44;;;;;;;9.63;3.70;;;;;;;25.91;49.38;99421.22;4971939;28;20441;-78
2021/08/07 07:00:13;;;;;;;6.75;4.25;;;;;;;25.89;50.03;99421.44;4957506;28;20303;-81
2021/08/07 07:02:41;;;;;;;9.02;4.03;;;;;;;26.02;49.48;99424.16;4948414;28;20046;-82
2021/08/07 07:05:09;;;;;;;10.40;3.70;;;;;;;26.18;48.94;99422.19;4968204;28;20125;-78
2021/08/07 07:07:40;;;;;;;8.95;3.00;;;;;;;26.09;48.79;99424.19;4974996;28;20039;-80
2021/08/07 07:10:13;;;;;;;11.18;4.20;;;;;;;25.93;49.74;99425.34;4958134;28;20250;-77
2021/08/07 07:12:40;;;;;;;8.57;3.92;;;;;;;26.05;50.01;99426.47;4963506;28;20038;-78
2021/08/07 07:15:09;;;;;;;11.48;3.70;;;;;;;26.07;49.75;99429.75;4949919;28;20079;-78
2021/08/07 07:17:37;;;;;;;10.82;3.83;;;;;;;26.06;49.82;99425.44;4954085;28;20046;-81
2021/08/07 07:20:06;;;;;;;9.98;4.82;;;;;;;25.87;50.33;99423.44;4948081;28;20592;-80
2021/08/07 07:22:34;;;;;;;9.93;3.67;;;;;;;25.97;50.59;99418.59;4935243;28;20049;-81
2021/08/07 07:25:03;;;;;;;7.50;4.22;;;;;;;25.85;50.15;99422.84;4947700;28;20470;-82
2021/08/07 07:27:30;;;;;;;13.30;3.97;;;;;;;25.84;50.85;99418.53;4970128;28;20039;-85
2021/08/07 07:29:57;;;;;;;8.02;4.78;;;;;;;26.01;50.30;99416.34;4956788;28;20049;-81
2021/08/07 07:32:24;;;;;;;11.00;3.97;;;;;;;26.00;50.26;99414.72;4952202;28;20047;-81
2021/08/07 07:34:51;;;;;;;12.27;6.18;;;;;;;26.01;50.74;99414.50;4955099;28;20039;-79
2021/08/07 07:37:20;;;;;;;10.38;4.75;;;;;;;25.93;50.87;99411.16;4955562;28;20030;-80
2021/08/07 07:39:47;;;;;;;7.38;4.18;;;;;;;26.01;50.24;99406.50;4954668;28;20046;-85
2021/08/07 07:42:14;;;;;;;7.13;3.95;;;;;;;26.09;50.13;99409.00;4950638;28;20481;-85
2021/08/07 07:44:41;;;;;;;18.85;5.32;;;;;;;25.95;51.00;99406.47;4940638;28;20097;-85
2021/08/07 07:47:07;;;;;;;7.43;3.78;;;;;;;25.91;50.34;99403.34;4969777;28;20082;-83
2021/08/07 07:49:35;;;;;;;6.10;3.38;;;;;;;25.84;50.50;99402.50;4954188;28;20039;-83
2021/08/07 07:52:04;;;;;;;7.70;3.60;;;;;;;25.84;50.59;99411.34;4955104;28;20549;-86
2021/08/07 07:54:30;;;;;;;7.68;3.80;;;;;;;25.94;50.44;99402.97;4967851;28;20122;-84
2021/08/07 07:56:58;;;;;;;3.67;3.00;;;;;;;25.77;50.80;99409.63;4957724;28;20422;-88
2021/08/07 07:59:25;;;;;;;11.32;3.28;;;;;;;25.78;50.84;99405.94;4955848;28;20039;-89
2021/08/07 08:01:51;;;;;;;11.40;3.83;;;;;;;25.93;50.39;99406.63;4947897;28;20101;-85
2021/08/07 08:04:19;;;;;;;7.65;3.47;;;;;;;25.95;50.66;99404.63;4951270;28;20074;-89
2021/08/07 08:06:45;;;;;;;8.65;4.00;;;;;;;26.01;50.14;99401.16;4961098;28;20049;-85
2021/08/07 08:09:12;;;;;;;6.95;2.97;;;;;;;26.18;49.92;99408.84;4954980;28;20043;-86
2021/08/07 08:11:39;;;;;;;8.77;3.25;;;;;;;26.03;50.33;99400.94;4971370;28;20176;-85
2021/08/07 08:14:06;;;;;;;5.93;2.70;;;;;;;26.13;49.88;99399.56;4958592;28;20046;-88
2021/08/07 08:16:34;;;;;;;9.07;3.78;;;;;;;25.88;50.45;99403.72;4952505;28;20086;-87
2021/08/07 08:19:01;;;;;;;6.03;3.38;;;;;;;25.90;50.23;99399.03;4970132;28;20031;-89
2021/08/07 08:21:28;;;;;;;11.90;2.92;;;;;;;26.02;49.46;99399.31;4971468;28;20150;-90
2021/08/07 08:23:55;;;;;;;7.10;2.97;;;;;;;26.19;49.97;99399.81;4952015;28;20119;-85
2021/08/07 08:26:22;;;;;;;6.05;2.80;;;;;;;26.22;48.78;99394.06;4969131;28;20047;-84
2021/08/07 08:28:49;;;;;;;8.77;4.57;;;;;;;26.25;49.10;99401.69;4954006;28;20073;-85
2021/08/07 08:31:16;;;;;;;7.97;2.75;;;;;;;26.27;48.33;99402.31;4965871;28;20035;-83
2021/08/07 08:33:43;;;;;;;9.63;3.97;;;;;;;26.04;49.83;99402.59;4944637;28;20063;-83
2021/08/07 08:36:11;;;;;;;7.20;3.20;;;;;;;26.24;48.91;99405.38;4957853;28;20051;-86
2021/08/07 08:38:38;;;;;;;11.73;3.38;;;;;;;26.32;48.94;99410.56;4954218;28;20133;-83
2021/08/07 08:41:05;;;;;;;8.90;2.85;;;;;;;26.36;48.39;99409.94;4971702;28;20047;-83
2021/08/07 08:43:36;;;;;;;6.03;3.28;;;;;;;26.29;48.68;99401.09;4958648;28;20074;-84
2021/08/07 08:46:03;;;;;;;7.88;3.28;;;;;;;26.32;48.57;99397.22;4958558;28;20055;-84
2021/08/07 08:48:30;;;;;;;6.20;2.83;;;;;;;26.42;48.31;99403.03;4953222;28;20205;-81
2021/08/07 08:50:58;;;;;;;4.60;3.13;;;;;;;26.37;48.07;99405.44;4952481;28;20038;-82
2021/08/07 08:53:26;;;;;;;7.72;3.65;;;;;;;26.33;48.38;99401.53;4949937;28;20036;-82
2021/08/07 08:55:53;;;;;;;6.30;2.63;;;;;;;26.44;47.94;99400.97;4953298;28;20039;-84
2021/08/07 08:58:20;;;;;;;8.35;3.08;;;;;;;26.51;47.68;99401.00;4951084;28;20135;-83
2021/08/07 09:00:48;;;;;;;10.93;3.50;;;;;;;26.48;48.64;99396.91;4970074;28;20102;-79
2021/08/07 09:03:17;;;;;;;11.82;3.05;;;;;;;26.17;49.35;99391.19;4955281;28;20423;-81
2021/08/07 09:05:44;;;;;;;9.65;4.15;;;;;;;26.55;47.86;99389.72;4957298;28;20030;-80
2021/08/07 09:08:15;;;;;;;5.55;2.78;;;;;;;26.46;47.57;99390.91;4968262;28;20051;-81
2021/08/07 09:10:42;;;;;;;14.95;4.65;;;;;;;26.21;49.15;99395.09;4967360;28;20118;-86
2021/08/07 09:13:18;;;;;;;7.30;3.47;;;;;;;26.40;47.92;99391.69;4963009;28;20054;-83
2021/08/07 09:15:45;;;;;;;7.43;3.60;;;;;;;26.60;48.10;99389.94;4953193;28;20044;-83
2021/08/07 09:18:26;;;;;;;4.30;3.08;;;;;;;26.68;48.29;99385.41;4945995;28;20086;-81
2021/08/07 09:21:18;;;;;;;11.88;3.90;;;;;;;26.77;48.29;99386.88;4936366;28;20074;-80
2021/08/07 09:24:05;;;;;;;6.25;3.40;;;;;;;26.81;47.50;99390.81;4949659;29;20491;-82
2021/08/07 09:26:33;;;;;;;15.00;3.55;;;;;;;26.85;47.89;99398.22;4945454;29;20074;-81
2021/08/07 09:28:59;;;;;;;7.28;3.58;;;;;;;26.60;47.05;99397.94;4951066;28;20048;-85
2021/08/07 09:31:57;;;;;;;3.88;2.70;;;;;;;26.89;46.94;99404.81;4946645;29;20043;-83
2021/08/07 09:34:24;;;;;;;9.60;3.35;;;;;;;26.65;46.63;99397.34;4951330;29;20043;-82
2021/08/07 09:36:56;;;;;;;4.10;3.08;;;;;;;26.95;46.61;99395.13;4952267;29;20051;-85
2021/08/07 09:39:43;;;;;;;3.67;2.97;;;;;;;26.84;46.73;99383.19;4947908;29;20412;-86
2021/08/07 09:42:21;;;;;;;5.18;2.80;;;;;;;26.66;47.26;99384.81;4941428;28;20039;-83
2021/08/07 09:45:04;;;;;;;7.97;3.08;;;;;;;26.90;47.98;99382.41;4945746;29;20414;-84
2021/08/07 09:47:41;;;;;;;6.88;3.00;;;;;;;26.99;47.59;99383.00;4963701;28;20055;-85
2021/08/07 09:50:25;;;;;;;5.43;2.85;;;;;;;27.12;46.58;99376.91;4951051;28;20468;-86
2021/08/07 09:52:57;;;;;;;5.75;2.88;;;;;;;27.19;46.38;99363.53;4949763;29;20043;-80
2021/08/07 09:55:25;;;;;;;7.25;3.10;;;;;;;27.06;46.72;99362.47;4943957;29;20628;-82
2021/08/07 09:58:10;;;;;;;7.55;2.83;;;;;;;27.15;46.04;99363.91;4945738;29;20090;-82
2021/08/07 10:00:41;;;;;;;6.40;2.85;;;;;;;27.20;45.75;99359.81;4958395;28;20047;-82
2021/08/07 10:03:18;;;;;;;5.40;2.90;;;;;;;27.18;45.75;99357.34;4927265;28;20058;-85
2021/08/07 10:05:49;;;;;;;9.02;3.42;;;;;;;27.32;46.34;99350.13;4947858;29;20569;-84
2021/08/07 10:08:16;;;;;;;3.05;2.72;;;;;;;27.35;45.24;99350.56;4964717;28;20046;-83
2021/08/07 10:10:50;;;;;;;9.57;2.80;;;;;;;27.32;46.22;99347.47;4955566;29;20043;-83
2021/08/07 10:13:21;;;;;;;4.35;2.65;;;;;;;27.54;44.93;99354.25;4948412;29;20467;-85
2021/08/07 10:15:58;;;;;;;5.07;2.75;;;;;;;27.57;45.43;99353.00;4948904;29;20524;-83
2021/08/07 10:18:26;;;;;;;7.65;2.50;;;;;;;27.63;45.29;99349.47;4963853;28;20094;-85
2021/08/07 10:21:00;;;;;;;7.35;2.45;;;;;;;27.64;45.27;99340.41;4952223;29;20058;-83
2021/08/07 10:23:27;;;;;;;5.70;2.50;;;;;;;27.60;45.39;99345.38;4960706;28;20036;-85
2021/08/07 10:25:54;;;;;;;5.97;2.97;;;;;;;27.59;45.10;99334.88;4961714;28;20047;-84
2021/08/07 10:28:24;;;;;;;4.10;2.58;;;;;;;27.45;44.71;99327.91;4950404;29;20041;-85
2021/08/07 10:30:51;;;;;;;2.85;2.60;;;;;;;27.44;46.01;99329.75;4930868;29;20098;-84
2021/08/07 10:33:24;;;;;;;7.20;3.25;;;;;;;27.58;45.78;99331.38;4945999;29;20051;-89
2021/08/07 10:35:55;;;;;;;4.63;2.58;;;;;;;27.75;44.45;99325.59;4952354;29;20051;-92
2021/08/07 10:38:22;;;;;;;3.25;2.30;;;;;;;27.62;44.67;99327.25;4950112;29;20118;-86
2021/08/07 10:40:49;;;;;;;8.77;3.17;;;;;;;27.42;45.86;99326.44;4940810;29;20470;-86
2021/08/07 10:43:18;;;;;;;8.13;3.47;;;;;;;27.64;45.06;99322.50;4945818;28;20055;-86
2021/08/07 10:45:45;;;;;;;7.80;2.88;;;;;;;27.81;44.83;99319.41;4951166;28;20039;-87
2021/08/07 10:48:35;;;;;;;7.13;3.20;;;;;;;27.78;45.06;99312.63;4946840;29;20127;-86
2021/08/07 10:51:37;;;;;;;3.70;2.90;;;;;;;28.12;44.42;99318.66;4951674;29;20503;-84
2021/08/07 10:54:35;;;;;;;6.40;2.72;;;;;;;28.00;44.30;99323.03;4909457;28;20380;-85
2021/08/07 10:57:03;;;;;;;4.60;2.92;;;;;;;27.85;44.95;99315.25;4948856;29;20491;-85
2021/08/07 10:59:39;;;;;;;5.18;2.17;;;;;;;27.80;45.42;99312.41;4951817;29;20102;-84
2021/08/07 11:02:18;;;;;;;5.82;2.60;;;;;;;27.78;45.19;99315.28;4946327;28;20403;-86
2021/08/07 11:04:50;;;;;;;5.80;2.90;;;;;;;28.01;44.54;99316.66;4943919;29;20043;-85
2021/08/07 11:07:20;;;;;;;7.63;3.15;;;;;;;27.97;44.74;99302.88;4945571;28;20101;-84
2021/08/07 11:10:04;;;;;;;4.57;2.80;;;;;;;28.04;44.58;99305.53;4943280;28;20098;-86
2021/08/07 11:12:32;;;;;;;5.10;3.63;;;;;;;28.16;43.81;99309.16;4949217;28;20133;-81
2021/08/07 11:15:03;;;;;;;15.45;2.47;;;;;;;28.11;44.40;99306.31;4958947;28;20047;-82
2021/08/07 11:17:33;;;;;;;3.53;2.28;;;;;;;28.05;43.98;99312.53;4971964;28;20438;-82
2021/08/07 11:20:00;;;;;;;5.80;2.72;;;;;;;27.94;44.76;99297.94;4963333;28;20106;-81
2021/08/07 11:22:33;;;;;;;5.82;2.53;;;;;;;28.28;43.14;99302.09;4967543;28;20410;-81
2021/08/07 11:25:02;;;;;;;4.45;2.03;;;;;;;28.40;42.56;99299.59;4967924;28;20046;-82
2021/08/07 11:27:48;;;;;;;7.05;2.60;;;;;;;28.45;42.27;99292.56;4960293;28;20071;-81
2021/08/07 11:30:17;;;;;;;9.02;2.85;;;;;;;28.37;43.32;99286.63;4964404;28;20044;-80
2021/08/07 11:35:30;;;;;;;3.78;2.50;;;;;;;28.28;43.09;99282.50;4967132;28;20435;-80
2021/08/07 11:38:06;;;;;;;6.78;2.88;;;;;;;28.43;42.71;99283.91;4967147;28;20073;-80
2021/08/07 11:40:39;;;;;;;3.38;2.90;;;;;;;28.13;43.73;99277.47;4968142;28;20043;-78
2021/08/07 11:43:17;;;;;;;13.13;6.10;;;;;;;28.45;43.45;99273.81;4967103;28;20050;-79
2021/08/07 11:45:46;;;;;;;5.93;3.03;;;;;;;28.66;42.38;99269.94;4972877;28;20298;-79
2021/08/07 11:48:38;;;;;;;7.82;3.15;;;;;;;28.34;43.17;99255.72;4972508;28;20046;-80
2021/08/07 11:51:10;;;;;;;4.22;2.83;;;;;;;28.77;42.61;99246.16;4972253;28;20039;-79